sensor_id;sensor_type;location;lat;lon;timestamp;temperature;humidity
33645;DHT22;19986;48.190;16.366;2023-01-29T05:05:25;2.90;99.90
33645;DHT22;19986;48.190;16.366;2023-01-29T05:07:54;2.90;99.90
33645;DHT22;19986;48.190;16.366;2023-01-29T05:10:21;2.90;99.90
33645;DHT22;19986;48.190;16.366;2023-01-29T05:12:53;2.90;99.90
33645;DHT22;19986;48.190;16.366;2023-01-29T05:15:37;2.80;99.90
33645;DHT22;19986;48.190;16.366;2023-01-29T05:18:05;2.80;99.90
33645;DHT22;19986;48.190;16.366;2023-01-29T05:20:38;2.90;99.90
33645;DHT22;19986;48.190;16.366;2023-01-29T05:23:09;2.90;99.90
33645;DHT22;19986;48.190;16.366;2023-01-29T05:25:36;2.90;99.90
33645;DHT22;19986;48.190;16.366;2023-01-29T05:28:02;2.70;99.90
33645;DHT22;19986;48.190;16.366;2023-01-29T05:30:33;2.70;99.90
33645;DHT22;19986;48.190;16.366;2023-01-29T05:33:00;2.70;99.90
33645;DHT22;19986;48.190;16.366;2023-01-29T05:35:26;2.60;99.90
33645;DHT22;19986;48.190;16.366;2023-01-29T05:37:54;2.50;99.90
33645;DHT22;19986;48.190;16.366;2023-01-29T05:40:22;2.50;99.90
33645;DHT22;19986;48.190;16.366;2023-01-29T05:42:50;2.60;99.90
33645;DHT22;19986;48.190;16.366;2023-01-29T05:45:17;2.50;99.90
33645;DHT22;19986;48.190;16.366;2023-01-29T05:47:44;2.40;99.90
33645;DHT22;19986;48.190;16.366;2023-01-29T05:50:11;2.40;99.90
33645;DHT22;19986;48.190;16.366;2023-01-29T05:52:37;2.40;99.90
33645;DHT22;19986;48.190;16.366;2023-01-29T05:55:04;2.40;99.90
33645;DHT22;19986;48.190;16.366;2023-01-29T05:57:30;2.40;99.90
33645;DHT22;19986;48.190;16.366;2023-01-29T05:59:56;2.40;99.90
33645;DHT22;19986;48.190;16.366;2023-01-29T06:02:21;2.50;99.90
33645;DHT22;19986;48.190;16.366;2023-01-29T06:04:50;2.50;99.90
33645;DHT22;19986;48.190;16.366;2023-01-29T06:07:17;2.50;99.90
33645;DHT22;19986;48.190;16.366;2023-01-29T06:09:43;2.50;99.90
33645;DHT22;19986;48.190;16.366;2023-01-29T06:12:09;2.50;99.90
33645;DHT22;19986;48.190;16.366;2023-01-29T06:14:35;2.50;99.90
33645;DHT22;19986;48.190;16.366;2023-01-29T06:17:00;2.50;99.90
33645;DHT22;19986;48.190;16.366;2023-01-29T06:19:26;2.60;99.90
33645;DHT22;19986;48.190;16.366;2023-01-29T06:21:52;2.50;99.90
33645;DHT22;19986;48.190;16.366;2023-01-29T06:24:18;2.40;99.90
33645;DHT22;19986;48.190;16.366;2023-01-29T06:26:44;2.30;99.90
33645;DHT22;19986;48.190;16.366;2023-01-29T06:29:09;2.30;99.90
33645;DHT22;19986;48.190;16.366;2023-01-29T06:31:35;2.30;99.90
33645;DHT22;19986;48.190;16.366;2023-01-29T06:34:01;2.30;99.90
33645;DHT22;19986;48.190;16.366;2023-01-29T06:36:28;2.30;99.90
33645;DHT22;19986;48.190;16.366;2023-01-29T06:38:54;2.20;99.90
33645;DHT22;19986;48.190;16.366;2023-01-29T06:41:21;2.10;99.90
33645;DHT22;19986;48.190;16.366;2023-01-29T06:43:50;2.10;99.90
33645;DHT22;19986;48.190;16.366;2023-01-29T06:46:16;2.00;99.90
33645;DHT22;19986;48.190;16.366;2023-01-29T06:48:42;2.00;99.90
33645;DHT22;19986;48.190;16.366;2023-01-29T06:51:09;2.10;99.90
33645;DHT22;19986;48.190;16.366;2023-01-29T06:53:36;2.10;99.90
33645;DHT22;19986;48.190;16.366;2023-01-29T06:56:03;2.10;99.90
33645;DHT22;19986;48.190;16.366;2023-01-29T06:58:30;2.00;99.90
33645;DHT22;19986;48.190;16.366;2023-01-29T07:01:06;2.00;99.90
33645;DHT22;19986;48.190;16.366;2023-01-29T07:03:33;2.00;99.90
33645;DHT22;19986;48.190;16.366;2023-01-29T07:05:59;2.10;99.90
33645;DHT22;19986;48.190;16.366;2023-01-29T07:08:25;2.10;99.90
33645;DHT22;19986;48.190;16.366;2023-01-29T07:10:52;2.20;99.90
33645;DHT22;19986;48.190;16.366;2023-01-29T07:13:18;2.30;99.90
33645;DHT22;19986;48.190;16.366;2023-01-29T07:15:44;2.10;99.90
33645;DHT22;19986;48.190;16.366;2023-01-29T07:18:10;2.00;99.90
33645;DHT22;19986;48.190;16.366;2023-01-29T07:20:39;2.00;99.90
33645;DHT22;19986;48.190;16.366;2023-01-29T07:23:07;2.10;99.90
33645;DHT22;19986;48.190;16.366;2023-01-29T07:25:35;2.10;99.90
33645;DHT22;19986;48.190;16.366;2023-01-29T07:28:01;2.00;99.90
33645;DHT22;19986;48.190;16.366;2023-01-29T07:30:27;2.10;99.90
33645;DHT22;19986;48.190;16.366;2023-01-29T07:32:53;2.10;99.90
33645;DHT22;19986;48.190;16.366;2023-01-29T07:35:19;2.20;99.90
33645;DHT22;19986;48.190;16.366;2023-01-29T07:37:48;2.40;99.90
33645;DHT22;19986;48.190;16.366;2023-01-29T07:40:15;2.40;99.90
33645;DHT22;19986;48.190;16.366;2023-01-29T07:42:41;2.50;99.90
33645;DHT22;19986;48.190;16.366;2023-01-29T07:45:09;2.60;99.90
33645;DHT22;19986;48.190;16.366;2023-01-29T07:47:35;2.80;99.90
33645;DHT22;19986;48.190;16.366;2023-01-29T07:50:02;2.80;99.90
33645;DHT22;19986;48.190;16.366;2023-01-29T07:52:30;2.80;99.90
33645;DHT22;19986;48.190;16.366;2023-01-29T07:54:56;2.80;99.90
33645;DHT22;19986;48.190;16.366;2023-01-29T07:57:22;2.90;99.90
33645;DHT22;19986;48.190;16.366;2023-01-29T07:59:48;3.00;99.90
33645;DHT22;19986;48.190;16.366;2023-01-29T08:02:13;3.00;99.90
33645;DHT22;19986;48.190;16.366;2023-01-29T08:04:39;3.00;99.90
33645;DHT22;19986;48.190;16.366;2023-01-29T08:07:06;2.90;99.90
33645;DHT22;19986;48.190;16.366;2023-01-29T08:09:34;2.80;99.90
33645;DHT22;19986;48.190;16.366;2023-01-29T08:12:01;2.80;99.90
33645;DHT22;19986;48.190;16.366;2023-01-29T08:14:26;2.90;99.90
33645;DHT22;19986;48.190;16.366;2023-01-29T08:16:53;2.90;99.90
33645;DHT22;19986;48.190;16.366;2023-01-29T08:19:18;2.90;99.90
33645;DHT22;19986;48.190;16.366;2023-01-29T08:21:44;2.90;99.90
33645;DHT22;19986;48.190;16.366;2023-01-29T08:24:10;2.90;99.90
33645;DHT22;19986;48.190;16.366;2023-01-29T08:26:36;2.80;99.90
33645;DHT22;19986;48.190;16.366;2023-01-29T08:29:02;2.80;99.90
33645;DHT22;19986;48.190;16.366;2023-01-29T08:31:27;2.70;99.90
33645;DHT22;19986;48.190;16.366;2023-01-29T08:33:53;2.70;99.90
33645;DHT22;19986;48.190;16.366;2023-01-29T08:36:20;2.70;99.90
33645;DHT22;19986;48.190;16.366;2023-01-29T08:38:46;2.80;99.90
33645;DHT22;19986;48.190;16.366;2023-01-29T08:41:12;2.80;99.90
33645;DHT22;19986;48.190;16.366;2023-01-29T08:43:38;2.80;99.90
33645;DHT22;19986;48.190;16.366;2023-01-29T08:46:06;2.70;99.90
33645;DHT22;19986;48.190;16.366;2023-01-29T08:48:32;2.70;99.90
33645;DHT22;19986;48.190;16.366;2023-01-29T08:50:59;2.80;99.90
33645;DHT22;19986;48.190;16.366;2023-01-29T08:53:26;2.80;99.90
33645;DHT22;19986;48.190;16.366;2023-01-29T08:55:52;2.70;99.90
33645;DHT22;19986;48.190;16.366;2023-01-29T08:58:18;2.70;99.90
33645;DHT22;19986;48.190;16.366;2023-01-29T09:00:44;2.50;99.90
33645;DHT22;19986;48.190;16.366;2023-01-29T09:03:10;2.50;99.90
33645;DHT22;19986;48.190;16.366;2023-01-29T09:05:38;2.40;99.90
33645;DHT22;19986;48.190;16.366;2023-01-29T09:08:04;2.40;99.90
33645;DHT22;19986;48.190;16.366;2023-01-29T09:10:30;2.40;99.90
33645;DHT22;19986;48.190;16.366;2023-01-29T09:12:56;2.60;99.90
33645;DHT22;19986;48.190;16.366;2023-01-29T09:15:23;2.80;99.90
33645;DHT22;19986;48.190;16.366;2023-01-29T09:17:49;2.90;99.90
33645;DHT22;19986;48.190;16.366;2023-01-29T09:20:16;3.10;99.90
33645;DHT22;19986;48.190;16.366;2023-01-29T09:22:42;3.10;99.90
33645;DHT22;19986;48.190;16.366;2023-01-29T09:25:08;3.10;99.90
33645;DHT22;19986;48.190;16.366;2023-01-29T09:27:35;3.10;99.90
33645;DHT22;19986;48.190;16.366;2023-01-29T09:30:02;3.10;99.90
33645;DHT22;19986;48.190;16.366;2023-01-29T09:32:28;3.20;99.90
33645;DHT22;19986;48.190;16.366;2023-01-29T09:34:56;3.40;99.90
33645;DHT22;19986;48.190;16.366;2023-01-29T09:37:22;3.40;99.90
33645;DHT22;19986;48.190;16.366;2023-01-29T09:39:49;3.50;99.90
33645;DHT22;19986;48.190;16.366;2023-01-29T09:42:49;3.40;99.90
33645;DHT22;19986;48.190;16.366;2023-01-29T09:45:22;3.40;99.90
33645;DHT22;19986;48.190;16.366;2023-01-29T09:47:51;3.40;99.90
33645;DHT22;19986;48.190;16.366;2023-01-29T09:50:28;3.40;99.90
33645;DHT22;19986;48.190;16.366;2023-01-29T09:53:00;3.30;99.90
33645;DHT22;19986;48.190;16.366;2023-01-29T09:55:32;3.40;99.90
33645;DHT22;19986;48.190;16.366;2023-01-29T09:58:04;3.30;99.90
33645;DHT22;19986;48.190;16.366;2023-01-29T10:00:42;3.20;99.90
33645;DHT22;19986;48.190;16.366;2023-01-29T10:09:35;3.60;99.90
33645;DHT22;19986;48.190;16.366;2023-01-29T10:20:42;3.70;99.90
33645;DHT22;19986;48.190;16.366;2023-01-29T10:23:15;3.70;99.90
33645;DHT22;19986;48.190;16.366;2023-01-29T10:25:44;3.80;99.90
33645;DHT22;19986;48.190;16.366;2023-01-29T10:28:17;4.00;99.90
33645;DHT22;19986;48.190;16.366;2023-01-29T10:30:49;3.90;99.90
33645;DHT22;19986;48.190;16.366;2023-01-29T10:33:22;4.10;99.90
33645;DHT22;19986;48.190;16.366;2023-01-29T10:35:54;4.20;99.90
33645;DHT22;19986;48.190;16.366;2023-01-29T10:38:51;4.20;99.90
33645;DHT22;19986;48.190;16.366;2023-01-29T10:49:27;4.20;99.90
33645;DHT22;19986;48.190;16.366;2023-01-29T11:00:07;4.60;99.90
33645;DHT22;19986;48.190;16.366;2023-01-29T11:02:44;4.70;99.90
33645;DHT22;19986;48.190;16.366;2023-01-29T11:05:41;4.80;99.90
33645;DHT22;19986;48.190;16.366;2023-01-29T11:08:09;4.80;99.90
33645;DHT22;19986;48.190;16.366;2023-01-29T11:11:00;4.70;99.90
33645;DHT22;19986;48.190;16.366;2023-01-29T11:13:29;4.70;99.90
33645;DHT22;19986;48.190;16.366;2023-01-29T11:15:56;4.60;99.90
33645;DHT22;19986;48.190;16.366;2023-01-29T11:18:22;4.60;99.90
33645;DHT22;19986;48.190;16.366;2023-01-29T11:21:00;4.60;99.90
33645;DHT22;19986;48.190;16.366;2023-01-29T11:23:29;4.60;99.90
33645;DHT22;19986;48.190;16.366;2023-01-29T11:25:56;4.70;99.90
33645;DHT22;19986;48.190;16.366;2023-01-29T11:28:43;4.60;99.90
33645;DHT22;19986;48.190;16.366;2023-01-29T11:31:24;4.70;99.90
33645;DHT22;19986;48.190;16.366;2023-01-29T11:34:03;4.70;99.90
33645;DHT22;19986;48.190;16.366;2023-01-29T11:36:37;4.90;99.90
33645;DHT22;19986;48.190;16.366;2023-01-29T11:39:19;5.00;99.90
33645;DHT22;19986;48.190;16.366;2023-01-29T11:42:03;5.20;99.90
33645;DHT22;19986;48.190;16.366;2023-01-29T11:44:48;5.10;99.90
33645;DHT22;19986;48.190;16.366;2023-01-29T11:47:18;5.20;99.90
33645;DHT22;19986;48.190;16.366;2023-01-29T11:49:47;5.30;99.90
33645;DHT22;19986;48.190;16.366;2023-01-29T11:52:16;5.20;99.90
33645;DHT22;19986;48.190;16.366;2023-01-29T11:54:54;5.00;99.90
33645;DHT22;19986;48.190;16.366;2023-01-29T11:57:31;4.90;99.90
33645;DHT22;19986;48.190;16.366;2023-01-29T12:05:28;4.40;99.90
33645;DHT22;19986;48.190;16.366;2023-01-29T12:07:56;4.20;99.90
33645;DHT22;19986;48.190;16.366;2023-01-29T12:10:36;4.20;99.90
33645;DHT22;19986;48.190;16.366;2023-01-29T12:13:06;4.10;99.90
33645;DHT22;19986;48.190;16.366;2023-01-29T12:15:32;4.10;99.90
33645;DHT22;19986;48.190;16.366;2023-01-29T12:21:01;3.90;99.90
33645;DHT22;19986;48.190;16.366;2023-01-29T12:26:32;3.90;99.90
33645;DHT22;19986;48.190;16.366;2023-01-29T12:29:19;3.80;99.90
33645;DHT22;19986;48.190;16.366;2023-01-29T12:31:49;3.70;99.90
33645;DHT22;19986;48.190;16.366;2023-01-29T12:34:35;3.60;99.90
33645;DHT22;19986;48.190;16.366;2023-01-29T12:40:16;3.70;99.90
33645;DHT22;19986;48.190;16.366;2023-01-29T12:42:49;3.80;99.90
33645;DHT22;19986;48.190;16.366;2023-01-29T12:45:19;3.90;99.90
33645;DHT22;19986;48.190;16.366;2023-01-29T12:47:49;4.00;99.90
33645;DHT22;19986;48.190;16.366;2023-01-29T12:52:47;4.20;99.90
33645;DHT22;19986;48.190;16.366;2023-01-29T12:58:11;4.30;99.90
33645;DHT22;19986;48.190;16.366;2023-01-29T13:00:44;4.40;99.90
33645;DHT22;19986;48.190;16.366;2023-01-29T13:03:20;4.70;99.90
33645;DHT22;19986;48.190;16.366;2023-01-29T13:06:02;4.90;99.90
33645;DHT22;19986;48.190;16.366;2023-01-29T13:08:50;5.00;99.90
33645;DHT22;19986;48.190;16.366;2023-01-29T13:11:49;5.00;99.90
33645;DHT22;19986;48.190;16.366;2023-01-29T13:16:48;4.80;99.90
33645;DHT22;19986;48.190;16.366;2023-01-29T13:19:27;4.80;99.90
33645;DHT22;19986;48.190;16.366;2023-01-29T13:21:58;4.90;99.90
33645;DHT22;19986;48.190;16.366;2023-01-29T13:24:30;4.90;99.90
33645;DHT22;19986;48.190;16.366;2023-01-29T13:26:58;4.90;99.90
33645;DHT22;19986;48.190;16.366;2023-01-29T13:29:28;4.90;99.90
33645;DHT22;19986;48.190;16.366;2023-01-29T13:32:01;5.00;99.90
33645;DHT22;19986;48.190;16.366;2023-01-29T13:34:33;5.00;99.90
33645;DHT22;19986;48.190;16.366;2023-01-29T13:37:09;5.00;99.90
33645;DHT22;19986;48.190;16.366;2023-01-29T13:39:37;5.00;99.90
33645;DHT22;19986;48.190;16.366;2023-01-29T13:42:19;5.20;99.90
33645;DHT22;19986;48.190;16.366;2023-01-29T13:44:48;5.30;99.90
33645;DHT22;19986;48.190;16.366;2023-01-29T13:47:41;5.20;99.90
33645;DHT22;19986;48.190;16.366;2023-01-29T13:52:54;5.20;99.90
33645;DHT22;19986;48.190;16.366;2023-01-29T13:55:22;5.20;99.90
33645;DHT22;19986;48.190;16.366;2023-01-29T13:58:00;5.20;99.90
33645;DHT22;19986;48.190;16.366;2023-01-29T14:07:57;5.40;99.90
33645;DHT22;19986;48.190;16.366;2023-01-29T14:10:26;5.40;99.90
33645;DHT22;19986;48.190;16.366;2023-01-29T14:15:33;5.40;99.90
33645;DHT22;19986;48.190;16.366;2023-01-29T14:18:43;5.40;99.90
33645;DHT22;19986;48.190;16.366;2023-01-29T14:26:19;5.20;99.90
33645;DHT22;19986;48.190;16.366;2023-01-29T14:31:29;4.90;99.90
33645;DHT22;19986;48.190;16.366;2023-01-29T14:34:02;4.90;99.90
33645;DHT22;19986;48.190;16.366;2023-01-29T14:36:37;5.00;99.90
33645;DHT22;19986;48.190;16.366;2023-01-29T14:39:04;5.00;99.90
33645;DHT22;19986;48.190;16.366;2023-01-29T14:41:32;5.00;99.90
33645;DHT22;19986;48.190;16.366;2023-01-29T14:47:03;4.80;99.90
33645;DHT22;19986;48.190;16.366;2023-01-29T14:52:16;4.80;99.90
33645;DHT22;19986;48.190;16.366;2023-01-29T14:54:46;4.70;99.90
33645;DHT22;19986;48.190;16.366;2023-01-29T14:57:15;4.70;99.90
33645;DHT22;19986;48.190;16.366;2023-01-29T14:59:55;4.70;99.90
33645;DHT22;19986;48.190;16.366;2023-01-29T15:02:29;4.70;99.90
33645;DHT22;19986;48.190;16.366;2023-01-29T15:05:03;4.60;99.90
33645;DHT22;19986;48.190;16.366;2023-01-29T15:07:49;4.60;99.90
33645;DHT22;19986;48.190;16.366;2023-01-29T15:11:02;4.50;99.90
33645;DHT22;19986;48.190;16.366;2023-01-29T15:15:44;4.50;99.90
33645;DHT22;19986;48.190;16.366;2023-01-29T15:20:42;4.40;99.90
33645;DHT22;19986;48.190;16.366;2023-01-29T15:23:27;4.20;99.90
33645;DHT22;19986;48.190;16.366;2023-01-29T15:25:55;4.20;99.90
33645;DHT22;19986;48.190;16.366;2023-01-29T15:28:22;4.20;99.90
33645;DHT22;19986;48.190;16.366;2023-01-29T15:30:54;4.10;99.90
33645;DHT22;19986;48.190;16.366;2023-01-29T15:33:20;4.10;99.90
33645;DHT22;19986;48.190;16.366;2023-01-29T15:35:47;4.10;99.90
33645;DHT22;19986;48.190;16.366;2023-01-29T15:38:21;4.10;99.90
33645;DHT22;19986;48.190;16.366;2023-01-29T15:41:12;4.20;99.90
33645;DHT22;19986;48.190;16.366;2023-01-29T15:43:47;4.20;99.90
33645;DHT22;19986;48.190;16.366;2023-01-29T15:46:34;4.10;99.90
33645;DHT22;19986;48.190;16.366;2023-01-29T15:49:14;4.00;99.90
33645;DHT22;19986;48.190;16.366;2023-01-29T15:51:41;3.90;99.90
33645;DHT22;19986;48.190;16.366;2023-01-29T15:54:14;3.80;99.90
33645;DHT22;19986;48.190;16.366;2023-01-29T15:56:45;3.80;99.90
33645;DHT22;19986;48.190;16.366;2023-01-29T15:59:36;3.70;99.90
33645;DHT22;19986;48.190;16.366;2023-01-29T16:04:59;3.70;99.90
33645;DHT22;19986;48.190;16.366;2023-01-29T16:07:26;3.70;99.90
33645;DHT22;19986;48.190;16.366;2023-01-29T16:09:53;3.80;99.90
33645;DHT22;19986;48.190;16.366;2023-01-29T16:12:20;3.80;99.90
33645;DHT22;19986;48.190;16.366;2023-01-29T16:14:48;3.70;99.90
33645;DHT22;19986;48.190;16.366;2023-01-29T16:17:24;3.70;99.90
33645;DHT22;19986;48.190;16.366;2023-01-29T16:20:02;3.60;99.90
33645;DHT22;19986;48.190;16.366;2023-01-29T16:22:32;3.60;99.90
33645;DHT22;19986;48.190;16.366;2023-01-29T16:25:11;3.50;99.90
33645;DHT22;19986;48.190;16.366;2023-01-29T16:27:39;3.60;99.90
33645;DHT22;19986;48.190;16.366;2023-01-29T16:30:12;3.60;99.90
33645;DHT22;19986;48.190;16.366;2023-01-29T16:32:39;3.60;99.90
33645;DHT22;19986;48.190;16.366;2023-01-29T16:35:06;3.60;99.90
33645;DHT22;19986;48.190;16.366;2023-01-29T16:37:33;3.60;99.90
33645;DHT22;19986;48.190;16.366;2023-01-29T16:40:12;3.60;99.90
33645;DHT22;19986;48.190;16.366;2023-01-29T16:42:42;3.70;99.90
33645;DHT22;19986;48.190;16.366;2023-01-29T16:45:26;3.60;99.90
33645;DHT22;19986;48.190;16.366;2023-01-29T16:48:01;3.70;99.90
33645;DHT22;19986;48.190;16.366;2023-01-29T16:50:44;3.60;99.90
33645;DHT22;19986;48.190;16.366;2023-01-29T16:53:14;3.50;99.90
33645;DHT22;19986;48.190;16.366;2023-01-29T16:55:44;3.50;99.90
33645;DHT22;19986;48.190;16.366;2023-01-29T16:58:24;3.50;99.90
33645;DHT22;19986;48.190;16.366;2023-01-29T17:01:06;3.50;99.90
33645;DHT22;19986;48.190;16.366;2023-01-29T17:03:38;3.40;99.90
33645;DHT22;19986;48.190;16.366;2023-01-29T17:06:10;3.40;99.90
33645;DHT22;19986;48.190;16.366;2023-01-29T17:08:39;3.40;99.90
33645;DHT22;19986;48.190;16.366;2023-01-29T17:11:09;3.40;99.90
33645;DHT22;19986;48.190;16.366;2023-01-29T17:13:42;3.40;99.90
33645;DHT22;19986;48.190;16.366;2023-01-29T17:16:19;3.50;99.90
33645;DHT22;19986;48.190;16.366;2023-01-29T17:18:46;3.50;99.90
33645;DHT22;19986;48.190;16.366;2023-01-29T17:21:13;3.40;99.90
33645;DHT22;19986;48.190;16.366;2023-01-29T17:23:39;3.40;99.90
33645;DHT22;19986;48.190;16.366;2023-01-29T17:26:07;3.40;99.90
33645;DHT22;19986;48.190;16.366;2023-01-29T17:28:34;3.50;99.90
33645;DHT22;19986;48.190;16.366;2023-01-29T17:31:00;3.50;99.90
33645;DHT22;19986;48.190;16.366;2023-01-29T17:33:27;3.50;99.90
33645;DHT22;19986;48.190;16.366;2023-01-29T17:35:53;3.50;99.90
33645;DHT22;19986;48.190;16.366;2023-01-29T17:38:20;3.50;99.90
33645;DHT22;19986;48.190;16.366;2023-01-29T17:40:56;3.50;99.90
33645;DHT22;19986;48.190;16.366;2023-01-29T17:43:23;3.50;99.90
33645;DHT22;19986;48.190;16.366;2023-01-29T17:45:49;3.50;99.90
33645;DHT22;19986;48.190;16.366;2023-01-29T17:48:24;3.60;99.90
33645;DHT22;19986;48.190;16.366;2023-01-29T17:50:53;3.60;99.90
33645;DHT22;19986;48.190;16.366;2023-01-29T17:53:22;3.60;99.90
33645;DHT22;19986;48.190;16.366;2023-01-29T17:55:50;3.70;99.90
33645;DHT22;19986;48.190;16.366;2023-01-29T17:58:20;3.70;99.90
33645;DHT22;19986;48.190;16.366;2023-01-29T18:00:47;3.70;99.90
33645;DHT22;19986;48.190;16.366;2023-01-29T18:03:14;3.70;99.90
33645;DHT22;19986;48.190;16.366;2023-01-29T18:05:42;3.70;99.90
33645;DHT22;19986;48.190;16.366;2023-01-29T18:08:28;3.70;99.90
33645;DHT22;19986;48.190;16.366;2023-01-29T18:10:56;3.70;99.90
33645;DHT22;19986;48.190;16.366;2023-01-29T18:13:22;3.70;99.90
33645;DHT22;19986;48.190;16.366;2023-01-29T18:15:50;3.70;99.90
33645;DHT22;19986;48.190;16.366;2023-01-29T18:18:21;3.70;99.90
33645;DHT22;19986;48.190;16.366;2023-01-29T18:20:48;3.70;99.90
33645;DHT22;19986;48.190;16.366;2023-01-29T18:23:14;3.70;99.90
33645;DHT22;19986;48.190;16.366;2023-01-29T18:25:42;3.70;99.90
33645;DHT22;19986;48.190;16.366;2023-01-29T18:28:16;3.70;99.90
33645;DHT22;19986;48.190;16.366;2023-01-29T18:30:43;3.70;99.90
33645;DHT22;19986;48.190;16.366;2023-01-29T18:33:12;3.70;99.90
33645;DHT22;19986;48.190;16.366;2023-01-29T18:35:38;3.70;99.90
33645;DHT22;19986;48.190;16.366;2023-01-29T18:38:06;3.70;99.90
33645;DHT22;19986;48.190;16.366;2023-01-29T18:40:33;3.70;99.90
33645;DHT22;19986;48.190;16.366;2023-01-29T18:42:59;3.70;99.90
33645;DHT22;19986;48.190;16.366;2023-01-29T18:45:26;3.70;99.90
33645;DHT22;19986;48.190;16.366;2023-01-29T18:47:53;3.70;99.90
33645;DHT22;19986;48.190;16.366;2023-01-29T18:50:20;3.70;99.90
33645;DHT22;19986;48.190;16.366;2023-01-29T18:52:53;3.70;99.90
33645;DHT22;19986;48.190;16.366;2023-01-29T18:55:19;3.70;99.90
33645;DHT22;19986;48.190;16.366;2023-01-29T18:57:46;3.70;99.90
33645;DHT22;19986;48.190;16.366;2023-01-29T19:00:12;3.70;99.90
33645;DHT22;19986;48.190;16.366;2023-01-29T19:02:39;3.70;99.90
33645;DHT22;19986;48.190;16.366;2023-01-29T19:05:10;3.70;99.90
33645;DHT22;19986;48.190;16.366;2023-01-29T19:07:38;3.70;99.90
33645;DHT22;19986;48.190;16.366;2023-01-29T19:10:08;3.80;99.90
33645;DHT22;19986;48.190;16.366;2023-01-29T19:12:38;3.90;99.90
33645;DHT22;19986;48.190;16.366;2023-01-29T19:15:08;3.90;99.90
33645;DHT22;19986;48.190;16.366;2023-01-29T19:17:48;3.90;99.90
33645;DHT22;19986;48.190;16.366;2023-01-29T19:20:18;3.90;99.90
33645;DHT22;19986;48.190;16.366;2023-01-29T19:22:45;3.90;99.90
33645;DHT22;19986;48.190;16.366;2023-01-29T19:25:11;3.90;99.90
33645;DHT22;19986;48.190;16.366;2023-01-29T19:27:37;3.90;99.90
33645;DHT22;19986;48.190;16.366;2023-01-29T19:30:09;3.80;99.90
33645;DHT22;19986;48.190;16.366;2023-01-29T19:32:39;3.80;99.90
33645;DHT22;19986;48.190;16.366;2023-01-29T19:35:12;3.70;99.90
33645;DHT22;19986;48.190;16.366;2023-01-29T19:37:42;3.80;99.90
33645;DHT22;19986;48.190;16.366;2023-01-29T19:40:17;3.80;99.90
33645;DHT22;19986;48.190;16.366;2023-01-29T19:42:45;3.80;99.90
33645;DHT22;19986;48.190;16.366;2023-01-29T19:45:12;3.80;99.90
33645;DHT22;19986;48.190;16.366;2023-01-29T19:47:40;3.80;99.90
33645;DHT22;19986;48.190;16.366;2023-01-29T19:50:09;3.80;99.90
33645;DHT22;19986;48.190;16.366;2023-01-29T19:52:37;3.90;99.90
33645;DHT22;19986;48.190;16.366;2023-01-29T19:55:09;3.80;99.90
33645;DHT22;19986;48.190;16.366;2023-01-29T19:57:36;3.90;99.90
33645;DHT22;19986;48.190;16.366;2023-01-29T20:00:06;3.90;99.90
33645;DHT22;19986;48.190;16.366;2023-01-29T20:02:36;4.00;99.90
33645;DHT22;19986;48.190;16.366;2023-01-29T20:05:03;4.00;99.90
33645;DHT22;19986;48.190;16.366;2023-01-29T20:07:30;4.00;99.90
33645;DHT22;19986;48.190;16.366;2023-01-29T20:10:15;4.00;99.90
33645;DHT22;19986;48.190;16.366;2023-01-29T20:12:54;4.00;99.90
33645;DHT22;19986;48.190;16.366;2023-01-29T20:15:20;4.00;99.90
33645;DHT22;19986;48.190;16.366;2023-01-29T20:17:47;4.00;99.90
33645;DHT22;19986;48.190;16.366;2023-01-29T20:20:14;4.00;99.90
33645;DHT22;19986;48.190;16.366;2023-01-29T20:22:45;4.00;99.90
33645;DHT22;19986;48.190;16.366;2023-01-29T20:25:11;4.00;99.90
33645;DHT22;19986;48.190;16.366;2023-01-29T20:27:39;4.00;99.90
33645;DHT22;19986;48.190;16.366;2023-01-29T20:30:08;4.00;99.90
33645;DHT22;19986;48.190;16.366;2023-01-29T20:32:35;4.00;99.90
33645;DHT22;19986;48.190;16.366;2023-01-29T20:35:01;4.00;99.90
33645;DHT22;19986;48.190;16.366;2023-01-29T20:37:29;4.00;99.90
33645;DHT22;19986;48.190;16.366;2023-01-29T20:39:55;4.10;99.90
33645;DHT22;19986;48.190;16.366;2023-01-29T20:42:23;4.10;99.90
33645;DHT22;19986;48.190;16.366;2023-01-29T20:44:50;4.10;99.90
33645;DHT22;19986;48.190;16.366;2023-01-29T20:47:20;4.00;99.90
33645;DHT22;19986;48.190;16.366;2023-01-29T20:49:46;4.00;99.90
33645;DHT22;19986;48.190;16.366;2023-01-29T20:52:12;4.00;99.90
33645;DHT22;19986;48.190;16.366;2023-01-29T20:54:41;4.10;99.90
33645;DHT22;19986;48.190;16.366;2023-01-29T20:57:08;4.10;99.90
